createdAt,value
2017-07-24T00:00:52.075Z,18.08
2017-07-24T00:03:19.485Z,18.09
2017-07-24T00:05:46.892Z,18.06
2017-07-24T00:08:14.272Z,18.08
2017-07-24T00:10:41.680Z,18.05
2017-07-24T00:13:09.091Z,18.05
2017-07-24T00:15:36.483Z,18.06
2017-07-24T00:18:03.883Z,18.06
2017-07-24T00:20:31.331Z,18.07
2017-07-24T00:22:58.702Z,18.05
2017-07-24T00:25:26.154Z,18.05
2017-07-24T00:27:53.543Z,18.05
2017-07-24T00:30:20.964Z,18.06
2017-07-24T00:32:48.374Z,18.10
2017-07-24T00:35:15.761Z,18.09
2017-07-24T00:37:43.163Z,18.06
2017-07-24T00:40:10.555Z,18.06
2017-07-24T00:42:37.953Z,18.08
2017-07-24T00:45:05.368Z,18.11
2017-07-24T00:47:32.795Z,18.11
2017-07-24T00:50:00.194Z,18.06
2017-07-24T00:52:27.587Z,18.06
2017-07-24T00:54:55.007Z,18.08
2017-07-24T00:57:22.413Z,17.95
2017-07-24T00:59:49.809Z,17.94
2017-07-24T01:02:17.217Z,17.90
2017-07-24T01:04:44.609Z,17.87
2017-07-24T01:07:11.999Z,17.82
2017-07-24T01:09:39.408Z,17.77
2017-07-24T01:12:06.802Z,17.75
2017-07-24T01:14:34.198Z,17.73
2017-07-24T01:17:01.600Z,17.74
2017-07-24T01:19:29.019Z,17.71
2017-07-24T01:21:56.435Z,17.67
2017-07-24T01:24:23.846Z,17.67
2017-07-24T01:26:51.251Z,17.65
2017-07-24T01:29:18.661Z,17.64
2017-07-24T01:31:46.080Z,17.61
2017-07-24T01:34:13.468Z,17.64
2017-07-24T01:36:40.868Z,17.58
2017-07-24T01:39:08.285Z,17.57
2017-07-24T01:41:35.671Z,17.59
2017-07-24T01:44:03.070Z,17.55
2017-07-24T01:46:30.486Z,17.55
2017-07-24T01:48:57.891Z,17.52
2017-07-24T01:51:25.304Z,17.51
2017-07-24T01:53:52.741Z,17.55
2017-07-24T01:56:20.135Z,17.52
2017-07-24T01:58:47.532Z,17.49
2017-07-24T02:01:14.944Z,17.46
2017-07-24T02:03:42.351Z,17.42
2017-07-24T02:06:09.765Z,17.37
2017-07-24T02:08:37.172Z,17.32
2017-07-24T02:11:04.583Z,17.36
2017-07-24T02:13:31.984Z,17.30
2017-07-24T02:15:59.388Z,17.28
2017-07-24T02:18:26.782Z,17.29
2017-07-24T02:20:54.180Z,17.25
2017-07-24T02:23:21.595Z,17.24
2017-07-24T02:25:48.993Z,17.23
2017-07-24T02:28:16.382Z,17.22
2017-07-24T02:30:43.791Z,17.19
2017-07-24T02:33:11.187Z,17.19
2017-07-24T02:35:38.595Z,17.18
2017-07-24T02:38:06.017Z,17.19
2017-07-24T02:40:33.408Z,17.13
2017-07-24T02:43:00.803Z,17.14
2017-07-24T02:45:28.214Z,17.08
2017-07-24T02:47:55.616Z,17.07
2017-07-24T02:50:23.015Z,17.09
2017-07-24T02:52:50.425Z,17.07
2017-07-24T02:55:17.819Z,17.05
2017-07-24T02:57:45.214Z,17.03
2017-07-24T03:00:12.617Z,17.00
2017-07-24T03:02:40.011Z,17.01
2017-07-24T03:05:07.407Z,16.98
2017-07-24T03:07:34.815Z,16.99
2017-07-24T03:10:02.211Z,17.01
2017-07-24T03:12:29.603Z,16.97
2017-07-24T03:14:57.023Z,16.98
2017-07-24T03:17:24.420Z,16.97
2017-07-24T03:19:51.808Z,16.95
2017-07-24T03:22:19.214Z,16.93
2017-07-24T03:24:46.607Z,16.90
2017-07-24T03:27:13.999Z,16.98
2017-07-24T03:29:41.412Z,16.94
2017-07-24T03:32:08.856Z,16.91
2017-07-24T03:34:36.243Z,16.90
2017-07-24T03:37:03.648Z,16.82
2017-07-24T03:39:31.039Z,16.79
2017-07-24T03:41:58.439Z,16.80
2017-07-24T03:44:25.900Z,16.77
2017-07-24T03:46:53.295Z,16.78
2017-07-24T03:49:20.696Z,16.78
2017-07-24T03:51:48.108Z,16.74
2017-07-24T03:54:15.498Z,16.72
2017-07-24T03:56:42.891Z,16.74
2017-07-24T03:59:10.302Z,16.75
2017-07-24T04:01:37.695Z,16.73
2017-07-24T04:04:05.087Z,16.70
2017-07-24T04:06:32.491Z,16.68
2017-07-24T04:08:59.884Z,16.69
2017-07-24T04:11:27.324Z,16.70
2017-07-24T04:13:54.726Z,16.69
2017-07-24T04:16:22.126Z,16.70
2017-07-24T04:18:49.518Z,16.69
2017-07-24T04:21:16.919Z,16.67
2017-07-24T04:23:44.318Z,16.65
2017-07-24T04:26:11.710Z,16.68
2017-07-24T04:28:39.119Z,16.67
2017-07-24T04:31:06.518Z,16.65
2017-07-24T04:33:33.913Z,16.65
2017-07-24T04:36:01.315Z,16.67
2017-07-24T04:38:28.707Z,16.63
2017-07-24T04:40:56.100Z,16.59
2017-07-24T04:43:23.514Z,16.58
2017-07-24T04:45:50.903Z,16.55
2017-07-24T04:48:18.294Z,16.55
2017-07-24T04:50:45.701Z,16.54
2017-07-24T04:53:13.095Z,16.58
2017-07-24T04:55:40.522Z,16.63
2017-07-24T04:58:07.911Z,16.61
2017-07-24T05:00:35.314Z,16.63
2017-07-24T05:03:02.702Z,16.66
2017-07-24T05:05:30.123Z,16.65
2017-07-24T05:07:57.523Z,16.65
2017-07-24T05:10:24.970Z,16.68
2017-07-24T05:12:52.438Z,16.67
2017-07-24T05:15:19.830Z,16.65
2017-07-24T05:17:47.223Z,16.69
2017-07-24T05:20:14.636Z,16.66
2017-07-24T05:22:42.027Z,16.70
2017-07-24T05:25:09.414Z,16.74
2017-07-24T05:27:36.822Z,16.76
2017-07-24T05:30:04.218Z,16.76
2017-07-24T05:32:31.609Z,16.76
2017-07-24T05:34:59.031Z,16.76
2017-07-24T05:37:26.420Z,16.81
2017-07-24T05:39:53.816Z,16.82
2017-07-24T05:42:21.260Z,16.84
2017-07-24T05:44:48.671Z,16.89
2017-07-24T05:47:16.064Z,16.94
2017-07-24T05:49:43.500Z,16.89
2017-07-24T05:52:10.889Z,16.88
2017-07-24T05:54:38.293Z,16.88
2017-07-24T05:57:05.707Z,16.87
2017-07-24T05:59:33.115Z,16.88
2017-07-24T06:02:00.527Z,16.86
2017-07-24T06:04:27.982Z,16.88
2017-07-24T06:06:55.481Z,16.91
2017-07-24T06:09:22.879Z,16.86
2017-07-24T06:11:50.323Z,16.91
2017-07-24T06:14:17.725Z,16.98
2017-07-24T06:16:45.132Z,16.96
2017-07-24T06:19:12.565Z,16.97
2017-07-24T06:21:39.955Z,16.99
2017-07-24T06:24:07.384Z,17.05
2017-07-24T06:26:34.784Z,17.10
2017-07-24T06:29:02.180Z,17.00
2017-07-24T06:31:29.576Z,16.90
2017-07-24T06:33:56.988Z,16.89
2017-07-24T06:36:24.392Z,16.87
2017-07-24T06:38:51.790Z,16.86
2017-07-24T06:41:19.221Z,16.93
2017-07-24T06:43:46.599Z,16.93
2017-07-24T06:46:14.004Z,16.96
2017-07-24T06:48:41.406Z,16.85
2017-07-24T06:51:08.815Z,16.78
2017-07-24T06:53:36.207Z,16.85
2017-07-24T06:56:03.611Z,16.85
2017-07-24T06:58:30.995Z,16.83
2017-07-24T07:00:58.383Z,16.84
2017-07-24T07:03:25.791Z,16.69
2017-07-24T07:05:53.180Z,16.71
2017-07-24T07:08:20.587Z,16.68
2017-07-24T07:10:47.999Z,16.69
2017-07-24T07:13:15.394Z,16.71
2017-07-24T07:15:42.788Z,16.68
2017-07-24T07:18:10.194Z,16.77
2017-07-24T07:20:37.589Z,16.89
2017-07-24T07:23:04.979Z,17.01
2017-07-24T07:25:32.399Z,17.14
2017-07-24T07:27:59.788Z,17.28
2017-07-24T07:30:27.174Z,17.36
2017-07-24T07:32:54.582Z,17.49
2017-07-24T07:35:21.976Z,17.65
2017-07-24T07:37:49.368Z,17.81
2017-07-24T07:40:16.767Z,17.90
2017-07-24T07:42:44.162Z,18.04
2017-07-24T07:45:11.563Z,18.14
2017-07-24T07:47:38.976Z,18.24
2017-07-24T07:50:06.371Z,18.25
2017-07-24T07:52:33.766Z,18.09
2017-07-24T07:55:02.491Z,17.94
2017-07-24T07:57:29.883Z,18.13
2017-07-24T07:59:57.279Z,18.27
2017-07-24T08:02:25.311Z,18.35
2017-07-24T08:04:52.714Z,18.49
2017-07-24T08:07:20.118Z,18.58
2017-07-24T08:09:47.906Z,18.55
2017-07-24T08:12:16.334Z,18.36
2017-07-24T08:14:44.715Z,18.48
2017-07-24T08:17:12.136Z,18.51
2017-07-24T08:19:39.536Z,18.66
2017-07-24T08:22:06.934Z,18.65
2017-07-24T08:24:34.430Z,18.66
2017-07-24T08:27:01.827Z,18.62
2017-07-24T08:29:29.248Z,18.65
2017-07-24T08:31:56.667Z,18.66
2017-07-24T08:34:24.060Z,18.76
2017-07-24T08:36:51.473Z,18.78
2017-07-24T08:39:18.903Z,19.00
2017-07-24T08:41:46.303Z,19.09
2017-07-24T08:44:13.719Z,19.11
2017-07-24T08:46:41.146Z,19.10
2017-07-24T08:49:08.542Z,19.09
2017-07-24T08:51:35.952Z,19.17
2017-07-24T08:54:03.370Z,19.27
2017-07-24T08:56:30.763Z,19.17
2017-07-24T08:58:58.162Z,19.17
2017-07-24T09:01:25.567Z,19.11
2017-07-24T09:03:52.972Z,18.99
2017-07-24T09:06:20.384Z,19.01
2017-07-24T09:08:48.084Z,19.00
2017-07-24T09:11:15.487Z,19.11
2017-07-24T09:13:42.884Z,19.23
2017-07-24T09:16:10.312Z,19.21
2017-07-24T09:18:37.702Z,19.15
2017-07-24T09:21:05.097Z,19.30
2017-07-24T09:23:32.527Z,19.32
2017-07-24T09:25:59.923Z,19.12
2017-07-24T09:28:27.316Z,19.41
2017-07-24T09:30:54.732Z,19.61
2017-07-24T09:33:22.127Z,19.63
2017-07-24T09:35:49.529Z,20.02
2017-07-24T09:38:16.943Z,20.34
2017-07-24T09:40:44.340Z,20.80
2017-07-24T09:43:11.739Z,21.19
2017-07-24T09:45:39.151Z,21.20
2017-07-24T09:48:06.547Z,20.73
2017-07-24T09:50:33.942Z,20.51
2017-07-24T09:53:01.352Z,20.40
2017-07-24T09:55:28.744Z,20.83
2017-07-24T09:57:56.146Z,21.12
2017-07-24T10:00:23.582Z,21.09
2017-07-24T10:02:50.971Z,21.08
2017-07-24T10:05:18.358Z,20.87
2017-07-24T10:07:45.784Z,20.52
2017-07-24T10:10:13.170Z,20.24
2017-07-24T10:12:40.575Z,19.87
2017-07-24T10:15:07.996Z,19.74
2017-07-24T10:17:35.383Z,19.54
2017-07-24T10:20:02.779Z,19.48
2017-07-24T10:22:30.188Z,19.50
2017-07-24T10:24:57.583Z,19.70
2017-07-24T10:27:24.991Z,19.90
2017-07-24T10:29:52.390Z,19.87
2017-07-24T10:32:19.779Z,20.07
2017-07-24T10:34:47.168Z,20.28
2017-07-24T10:37:14.571Z,20.45
2017-07-24T10:39:41.955Z,20.50
2017-07-24T10:42:09.348Z,20.16
2017-07-24T10:44:36.755Z,19.82
2017-07-24T10:47:04.143Z,19.55
2017-07-24T10:49:31.525Z,19.07
2017-07-24T10:51:58.931Z,19.03
2017-07-24T10:54:26.316Z,19.08
2017-07-24T10:56:53.698Z,19.25
2017-07-24T10:59:21.116Z,19.34
2017-07-24T11:01:48.504Z,19.46
2017-07-24T11:04:15.895Z,19.59
2017-07-24T11:06:43.302Z,19.89
2017-07-24T11:09:10.692Z,20.04
2017-07-24T11:11:38.087Z,20.12
2017-07-24T11:14:05.495Z,20.07
2017-07-24T11:16:32.887Z,20.13
2017-07-24T11:19:00.275Z,20.22
2017-07-24T11:21:27.678Z,20.14
2017-07-24T11:23:55.072Z,20.41
2017-07-24T11:26:22.476Z,20.53
2017-07-24T11:28:49.883Z,20.07
2017-07-24T11:31:17.284Z,20.05
2017-07-24T11:33:44.679Z,20.51
2017-07-24T11:36:12.095Z,21.29
2017-07-24T11:38:39.485Z,21.60
2017-07-24T11:41:06.879Z,22.18
2017-07-24T11:43:34.300Z,22.51
2017-07-24T11:46:01.700Z,22.83
2017-07-24T11:48:29.100Z,22.90
2017-07-24T11:50:56.499Z,22.28
2017-07-24T11:53:23.891Z,22.48
2017-07-24T11:55:51.295Z,22.97
2017-07-24T11:58:18.715Z,23.32
2017-07-24T12:00:46.923Z,23.07
2017-07-24T12:03:14.321Z,23.09
2017-07-24T12:05:41.731Z,22.76
2017-07-24T12:08:09.130Z,22.46
2017-07-24T12:10:36.519Z,22.12
2017-07-24T12:13:03.949Z,21.97
2017-07-24T12:15:31.355Z,21.79
2017-07-24T12:17:58.747Z,21.45
2017-07-24T12:20:26.179Z,20.99
2017-07-24T12:22:53.570Z,20.96
2017-07-24T12:25:20.968Z,20.81
2017-07-24T12:27:48.380Z,20.46
2017-07-24T12:30:15.775Z,20.38
2017-07-24T12:32:43.169Z,20.56
2017-07-24T12:35:10.583Z,20.79
2017-07-24T12:37:37.975Z,20.76
2017-07-24T12:40:05.371Z,20.77
2017-07-24T12:42:32.780Z,20.70
2017-07-24T12:45:00.167Z,20.81
2017-07-24T12:47:27.559Z,21.13
2017-07-24T12:49:54.971Z,21.07
2017-07-24T12:52:22.394Z,20.65
2017-07-24T12:54:49.793Z,20.26
2017-07-24T12:57:17.264Z,19.93
2017-07-24T12:59:44.654Z,19.75
2017-07-24T13:02:12.054Z,19.33
2017-07-24T13:04:39.536Z,19.39
2017-07-24T13:07:06.931Z,19.20
2017-07-24T13:09:34.332Z,18.94
2017-07-24T13:12:01.747Z,18.62
2017-07-24T13:14:29.142Z,18.59
2017-07-24T13:16:56.534Z,18.76
2017-07-24T13:19:23.947Z,19.12
2017-07-24T13:21:51.339Z,19.51
2017-07-24T13:24:19.383Z,19.62
2017-07-24T13:26:47.146Z,20.04
2017-07-24T13:29:14.582Z,20.57
2017-07-24T13:31:41.971Z,20.78
2017-07-24T13:34:09.379Z,20.97
2017-07-24T13:36:36.777Z,21.21
2017-07-24T13:39:04.180Z,21.19
2017-07-24T13:41:31.597Z,20.85
2017-07-24T13:43:58.979Z,20.60
2017-07-24T13:46:26.403Z,20.38
2017-07-24T13:48:53.819Z,20.43
2017-07-24T13:51:21.216Z,20.33
2017-07-24T13:53:48.618Z,20.24
2017-07-24T13:56:16.028Z,20.14
2017-07-24T13:58:43.428Z,19.98
2017-07-24T14:01:10.819Z,19.78
2017-07-24T14:03:38.227Z,19.54
2017-07-24T14:06:05.626Z,19.34
2017-07-24T14:08:33.018Z,19.30
2017-07-24T14:11:00.431Z,19.26
2017-07-24T14:13:27.830Z,19.12
2017-07-24T14:15:55.226Z,19.13
2017-07-24T14:18:24.543Z,19.14
2017-07-24T14:20:51.947Z,18.95
2017-07-24T14:23:19.343Z,18.99
2017-07-24T14:25:46.753Z,18.72
2017-07-24T14:28:14.143Z,18.42
2017-07-24T14:30:41.535Z,18.32
2017-07-24T14:33:08.943Z,18.12
2017-07-24T14:35:36.331Z,17.98
2017-07-24T14:38:03.803Z,18.26
2017-07-24T14:40:31.215Z,18.49
2017-07-24T14:42:58.630Z,18.53
2017-07-24T14:45:26.016Z,18.36
2017-07-24T14:47:53.412Z,18.14
2017-07-24T14:50:20.805Z,18.08
2017-07-24T14:52:48.183Z,17.99
2017-07-24T14:55:15.603Z,18.09
2017-07-24T14:57:42.991Z,18.37
2017-07-24T15:00:10.384Z,18.84
2017-07-24T15:02:37.928Z,19.22
2017-07-24T15:05:05.323Z,19.38
2017-07-24T15:07:32.762Z,19.44
2017-07-24T15:10:00.172Z,19.16
2017-07-24T15:12:28.023Z,18.95
2017-07-24T15:14:55.443Z,18.86
2017-07-24T15:17:23.652Z,18.74
2017-07-24T15:19:52.704Z,18.66
2017-07-24T15:22:20.161Z,18.58
2017-07-24T15:24:47.606Z,18.52
2017-07-24T15:27:15.044Z,18.45
2017-07-24T15:29:42.423Z,18.55
2017-07-24T15:32:09.828Z,18.52
2017-07-24T15:34:37.244Z,18.56
2017-07-24T15:37:04.635Z,18.38
2017-07-24T15:39:32.043Z,18.05
2017-07-24T15:41:59.422Z,18.04
2017-07-24T15:44:26.811Z,18.18
2017-07-24T15:46:54.211Z,18.14
2017-07-24T15:49:21.595Z,18.23
2017-07-24T15:51:48.992Z,18.19
2017-07-24T15:54:16.405Z,18.06
2017-07-24T15:56:43.800Z,18.22
2017-07-24T15:59:11.199Z,18.52
2017-07-24T16:01:38.618Z,18.63
2017-07-24T16:04:06.008Z,18.76
2017-07-24T16:06:33.411Z,18.75
2017-07-24T16:09:00.812Z,18.75
2017-07-24T16:11:29.003Z,18.83
2017-07-24T16:13:57.347Z,18.59
2017-07-24T16:16:25.568Z,18.50
2017-07-24T16:18:52.948Z,18.42
2017-07-24T16:21:20.335Z,18.49
2017-07-24T16:23:47.753Z,18.58
2017-07-24T16:26:15.147Z,18.58
2017-07-24T16:28:42.556Z,18.75
2017-07-24T16:31:09.997Z,18.55
2017-07-24T16:33:37.390Z,18.42
2017-07-24T16:36:04.803Z,18.38
2017-07-24T16:38:32.223Z,18.49
2017-07-24T16:40:59.991Z,18.67
2017-07-24T16:43:27.387Z,18.96
2017-07-24T16:45:54.824Z,19.00
2017-07-24T16:48:22.227Z,19.08
2017-07-24T16:50:49.648Z,19.02
2017-07-24T16:53:17.209Z,18.88
2017-07-24T16:55:44.632Z,18.98
2017-07-24T16:58:12.013Z,19.08
2017-07-24T17:00:39.428Z,18.88
2017-07-24T17:03:06.814Z,19.01
2017-07-24T17:05:34.203Z,19.10
2017-07-24T17:08:01.616Z,18.96
2017-07-24T17:10:29.009Z,18.98
2017-07-24T17:12:56.391Z,19.01
2017-07-24T17:15:23.791Z,18.90
2017-07-24T17:17:51.195Z,18.95
2017-07-24T17:20:18.603Z,18.88
2017-07-24T17:22:46.015Z,19.03
2017-07-24T17:25:13.432Z,19.17
2017-07-24T17:27:40.831Z,19.06
2017-07-24T17:30:08.405Z,18.85
2017-07-24T17:32:35.878Z,18.99
2017-07-24T17:35:04.344Z,18.97
2017-07-24T17:37:31.851Z,18.92
2017-07-24T17:39:59.278Z,18.91
2017-07-24T17:42:26.734Z,18.90
2017-07-24T17:44:54.194Z,19.09
2017-07-24T17:47:21.597Z,19.19
2017-07-24T17:49:49.012Z,19.31
2017-07-24T17:52:16.455Z,19.25
2017-07-24T17:54:43.863Z,19.37
2017-07-24T17:57:12.558Z,19.20
2017-07-24T17:59:39.959Z,19.19
2017-07-24T18:02:08.059Z,19.32
2017-07-24T18:04:35.562Z,19.35
2017-07-24T18:07:02.980Z,19.37
2017-07-24T18:09:30.380Z,19.31
2017-07-24T18:11:57.826Z,19.33
2017-07-24T18:14:25.271Z,19.23
2017-07-24T18:16:52.720Z,19.08
2017-07-24T18:19:20.095Z,19.05
2017-07-24T18:21:48.461Z,19.14
2017-07-24T18:24:16.993Z,19.14
2017-07-24T18:26:44.391Z,18.98
2017-07-24T18:29:12.103Z,18.96
2017-07-24T18:31:40.257Z,19.03
2017-07-24T18:34:07.756Z,19.13
2017-07-24T18:36:35.295Z,19.17
2017-07-24T18:39:02.772Z,19.19
2017-07-24T18:41:30.171Z,19.19
2017-07-24T18:43:57.580Z,19.19
2017-07-24T18:46:25.177Z,19.13
2017-07-24T18:48:52.572Z,19.11
2017-07-24T18:51:20.070Z,19.07
2017-07-24T18:53:47.497Z,19.00
2017-07-24T18:56:14.927Z,18.99
2017-07-24T18:58:42.440Z,18.97
2017-07-24T19:01:09.863Z,18.89
2017-07-24T19:03:37.287Z,18.86
2017-07-24T19:06:04.700Z,18.79
2017-07-24T19:08:32.111Z,18.63
2017-07-24T19:10:59.553Z,18.40
2017-07-24T19:13:26.952Z,18.22
2017-07-24T19:15:54.380Z,18.02
2017-07-24T19:18:21.792Z,18.04
2017-07-24T19:20:49.235Z,17.82
2017-07-24T19:23:17.465Z,17.85
2017-07-24T19:25:44.865Z,17.93
2017-07-24T19:28:12.309Z,17.91
2017-07-24T19:30:40.183Z,17.70
2017-07-24T19:33:07.594Z,17.79
2017-07-24T19:35:35.043Z,17.82
2017-07-24T19:38:02.473Z,17.81
2017-07-24T19:40:29.922Z,17.80
2017-07-24T19:42:57.324Z,17.69
2017-07-24T19:45:24.722Z,17.51
2017-07-24T19:47:52.139Z,17.49
2017-07-24T19:50:19.546Z,17.45
2017-07-24T19:52:46.947Z,17.42
2017-07-24T19:55:14.363Z,17.41
2017-07-24T19:57:41.794Z,17.32
2017-07-24T20:00:09.189Z,17.22
2017-07-24T20:02:36.606Z,17.11
2017-07-24T20:05:04.019Z,17.02
2017-07-24T20:07:31.467Z,17.08
2017-07-24T20:09:58.871Z,17.07
2017-07-24T20:12:26.286Z,17.09
2017-07-24T20:14:53.683Z,17.15
2017-07-24T20:17:21.104Z,17.13
2017-07-24T20:19:48.499Z,16.99
2017-07-24T20:22:15.887Z,16.95
2017-07-24T20:24:43.311Z,17.02
2017-07-24T20:27:10.727Z,17.04
2017-07-24T20:29:38.142Z,17.06
2017-07-24T20:32:05.543Z,17.07
2017-07-24T20:34:32.959Z,17.04
2017-07-24T20:37:00.380Z,17.08
2017-07-24T20:39:27.807Z,17.04
2017-07-24T20:41:55.220Z,17.07
2017-07-24T20:44:22.626Z,16.99
2017-07-24T20:46:50.070Z,16.97
2017-07-24T20:49:17.479Z,16.96
2017-07-24T20:51:44.885Z,16.97
2017-07-24T20:54:12.330Z,16.94
2017-07-24T20:56:39.740Z,17.02
2017-07-24T20:59:07.140Z,16.85
2017-07-24T21:01:34.550Z,16.83
2017-07-24T21:04:02.016Z,16.81
2017-07-24T21:06:29.465Z,16.84
2017-07-24T21:08:56.876Z,16.89
2017-07-24T21:11:24.311Z,16.91
2017-07-24T21:13:51.719Z,16.85
2017-07-24T21:16:19.155Z,16.80
2017-07-24T21:18:46.561Z,16.71
2017-07-24T21:21:13.973Z,16.71
2017-07-24T21:23:41.375Z,16.68
2017-07-24T21:26:08.785Z,16.63
2017-07-24T21:28:36.191Z,16.67
2017-07-24T21:31:03.618Z,16.73
2017-07-24T21:33:31.027Z,16.78
2017-07-24T21:35:58.646Z,16.77
2017-07-24T21:38:26.140Z,16.83
2017-07-24T21:40:53.535Z,16.84
2017-07-24T21:43:20.949Z,16.84
2017-07-24T21:45:48.348Z,16.82
2017-07-24T21:48:15.779Z,16.70
2017-07-24T21:50:43.179Z,16.72
2017-07-24T21:53:10.579Z,16.70
2017-07-24T21:55:38.012Z,16.68
2017-07-24T21:58:05.424Z,16.65
2017-07-24T22:00:32.853Z,16.63
2017-07-24T22:03:00.259Z,16.68
2017-07-24T22:05:27.716Z,16.70
2017-07-24T22:07:55.194Z,16.74
2017-07-24T22:10:22.608Z,16.78
2017-07-24T22:12:50.033Z,16.84
2017-07-24T22:15:17.458Z,16.89
2017-07-24T22:17:44.861Z,16.87
2017-07-24T22:20:12.292Z,16.84
2017-07-24T22:22:39.742Z,16.85
2017-07-24T22:25:07.153Z,16.81
2017-07-24T22:27:34.544Z,16.82
2017-07-24T22:30:01.947Z,16.78
2017-07-24T22:32:29.359Z,16.76
2017-07-24T22:34:56.762Z,16.81
2017-07-24T22:37:24.179Z,16.77
2017-07-24T22:39:51.599Z,16.76
2017-07-24T22:42:19.018Z,16.68
2017-07-24T22:44:46.455Z,16.64
2017-07-24T22:47:13.871Z,16.59
2017-07-24T22:49:41.323Z,16.57
2017-07-24T22:52:08.716Z,16.64
2017-07-24T22:54:36.135Z,16.58
2017-07-24T22:57:03.539Z,16.62
2017-07-24T22:59:30.942Z,16.62
2017-07-24T23:01:58.368Z,16.64
2017-07-24T23:04:25.776Z,16.63
2017-07-24T23:06:53.210Z,16.65
2017-07-24T23:09:20.632Z,16.69
2017-07-24T23:11:48.035Z,16.69
2017-07-24T23:14:15.483Z,16.70
2017-07-24T23:16:42.876Z,16.65
2017-07-24T23:19:10.317Z,16.64
2017-07-24T23:21:37.736Z,16.66
2017-07-24T23:24:05.145Z,16.67
2017-07-24T23:26:32.579Z,16.62
2017-07-24T23:28:59.996Z,16.58
2017-07-24T23:31:27.386Z,16.53
2017-07-24T23:33:54.798Z,16.49
2017-07-24T23:36:22.604Z,16.50
2017-07-24T23:38:50.031Z,16.46
2017-07-24T23:41:17.464Z,16.48
2017-07-24T23:43:44.852Z,16.47
2017-07-24T23:46:12.298Z,16.48
2017-07-24T23:48:39.706Z,16.43
2017-07-24T23:51:07.176Z,16.44
2017-07-24T23:53:34.603Z,16.47
2017-07-24T23:56:02.023Z,16.51
2017-07-24T23:58:29.420Z,16.54
